Time;durP1;ratioP1;P1;durP2;ratioP2;P2;SDS_P1;SDS_P2;PMS_P1;PMS_P2;Temp;Humidity;BMP_temperature;BMP_pressure;BME280_temperature;BME280_humidity;BME280_pressure;Samples;Min_cycle;Max_cycle;Signal;HPM_P1;HPM_P2
2023/01/24 00:01:15;;;;;;;20.55;11.77;;;2.60;99.90;;;;;;5037195;28;20037;-75
2023/01/24 00:03:41;;;;;;;22.65;11.90;;;2.60;99.90;;;;;;5058530;28;20452;-75
2023/01/24 00:06:07;;;;;;;21.10;11.88;;;2.70;99.90;;;;;;5055824;28;20040;-75
2023/01/24 00:08:32;;;;;;;21.33;11.93;;;2.60;99.90;;;;;;5037538;28;20067;-74
2023/01/24 00:11:00;;;;;;;22.20;12.35;;;2.60;99.90;;;;;;5044515;28;20044;-73
2023/01/24 00:13:26;;;;;;;22.25;12.82;;;2.60;99.90;;;;;;5035541;28;20072;-74
2023/01/24 00:16:12;;;;;;;22.20;12.43;;;2.60;99.90;;;;;;5042824;28;20097;-74
2023/01/24 00:18:38;;;;;;;21.13;12.10;;;2.60;99.90;;;;;;5053750;28;20669;-73
2023/01/24 00:21:09;;;;;;;20.30;11.43;;;2.60;99.90;;;;;;5049712;28;20056;-74
2023/01/24 00:23:47;;;;;;;19.58;11.65;;;2.70;99.90;;;;;;5038606;28;20041;-74
2023/01/24 00:26:14;;;;;;;22.02;13.00;;;2.60;99.90;;;;;;5062332;28;20087;-75
2023/01/24 00:28:40;;;;;;;19.85;12.13;;;2.60;99.90;;;;;;5060232;28;20525;-74
2023/01/24 00:31:05;;;;;;;23.05;12.50;;;2.60;99.90;;;;;;5027248;28;20052;-74
2023/01/24 00:33:32;;;;;;;23.42;12.18;;;2.60;99.90;;;;;;5061181;28;20119;-73
2023/01/24 00:35:58;;;;;;;19.67;12.23;;;2.60;99.90;;;;;;5041856;28;20049;-73
2023/01/24 00:38:23;;;;;;;22.08;12.05;;;2.70;99.90;;;;;;5043922;28;20044;-74
2023/01/24 00:40:50;;;;;;;21.27;12.50;;;2.60;99.90;;;;;;5040492;28;20664;-74
2023/01/24 00:43:16;;;;;;;20.02;12.00;;;2.60;99.90;;;;;;5017393;28;20057;-74
2023/01/24 00:45:44;;;;;;;21.85;12.27;;;2.60;99.90;;;;;;5020658;28;20056;-74
2023/01/24 00:48:10;;;;;;;22.63;12.55;;;2.90;99.90;;;;;;5018474;28;20052;-74
2023/01/24 00:50:36;;;;;;;24.92;13.85;;;2.60;99.90;;;;;;5033554;28;20052;-73
2023/01/24 00:53:02;;;;;;;24.00;12.15;;;2.70;99.90;;;;;;5033024;28;20049;-75
2023/01/24 00:55:28;;;;;;;20.65;12.90;;;2.70;99.90;;;;;;5034043;28;20119;-75
2023/01/24 00:57:54;;;;;;;21.30;12.40;;;2.70;99.90;;;;;;5027164;28;20048;-74
2023/01/24 01:00:20;;;;;;;21.38;12.35;;;2.60;99.90;;;;;;5036399;28;20036;-75
2023/01/24 01:02:47;;;;;;;22.75;12.48;;;2.60;99.90;;;;;;5046893;28;20239;-75
2023/01/24 01:05:13;;;;;;;22.13;13.00;;;2.60;99.90;;;;;;5033271;28;20121;-74
2023/01/24 01:07:39;;;;;;;20.60;12.60;;;2.60;99.90;;;;;;5043411;28;20128;-74
2023/01/24 01:10:05;;;;;;;21.25;12.98;;;3.30;99.90;;;;;;5036066;28;20049;-74
2023/01/24 01:12:31;;;;;;;22.38;12.60;;;2.60;99.90;;;;;;5052616;28;20053;-73
2023/01/24 01:14:57;;;;;;;23.08;13.00;;;2.60;99.90;;;;;;5014782;28;20049;-74
2023/01/24 01:17:23;;;;;;;21.83;12.90;;;3.50;99.90;;;;;;5026359;28;20071;-73
2023/01/24 01:19:52;;;;;;;24.05;12.95;;;2.70;99.90;;;;;;5020942;28;20098;-74
2023/01/24 01:22:18;;;;;;;25.67;12.85;;;2.70;99.90;;;;;;5039598;28;20049;-74
2023/01/24 01:24:44;;;;;;;26.17;14.50;;;2.60;99.90;;;;;;5039454;28;20056;-74
2023/01/24 01:27:10;;;;;;;28.00;13.75;;;2.60;99.90;;;;;;5035281;28;20503;-74
2023/01/24 01:29:35;;;;;;;25.50;14.15;;;2.60;99.90;;;;;;5047896;28;20135;-73
2023/01/24 01:32:01;;;;;;;23.90;14.40;;;3.30;99.90;;;;;;5041597;28;20094;-74
2023/01/24 01:34:27;;;;;;;25.00;14.55;;;3.40;99.90;;;;;;5041644;28;20700;-74
2023/01/24 01:36:53;;;;;;;23.40;14.25;;;2.60;99.90;;;;;;5044499;28;20147;-74
2023/01/24 01:39:19;;;;;;;24.80;14.25;;;2.60;99.90;;;;;;5024451;28;20487;-74
2023/01/24 01:41:44;;;;;;;27.60;15.38;;;2.90;99.90;;;;;;5039293;28;20083;-74
2023/01/24 01:44:37;;;;;;;29.65;16.13;;;2.60;99.90;;;;;;5015671;28;20040;-74
2023/01/24 01:47:08;;;;;;;26.48;15.70;;;2.60;99.90;;;;;;5062814;28;20504;-73
2023/01/24 01:49:34;;;;;;;26.85;14.82;;;2.60;99.90;;;;;;5047696;28;21947;-74
2023/01/24 01:52:03;;;;;;;26.50;14.75;;;2.60;99.90;;;;;;5038839;28;20745;-74
2023/01/24 01:54:39;;;;;;;26.92;15.18;;;2.60;99.90;;;;;;5042085;28;20097;-73
2023/01/24 01:57:11;;;;;;;24.42;14.40;;;2.60;99.90;;;;;;5035844;28;20414;-75
2023/01/24 01:59:48;;;;;;;26.13;13.98;;;2.60;99.90;;;;;;5047642;28;20900;-74
2023/01/24 02:02:14;;;;;;;25.10;13.88;;;2.80;99.90;;;;;;5033093;28;20604;-75
2023/01/24 02:04:46;;;;;;;25.00;14.77;;;2.70;99.90;;;;;;5017429;28;20067;-73
2023/01/24 02:07:25;;;;;;;26.15;14.93;;;2.60;99.90;;;;;;5037104;28;20696;-74
2023/01/24 02:09:53;;;;;;;24.20;14.27;;;2.60;99.90;;;;;;5053014;28;20045;-75
2023/01/24 02:12:38;;;;;;;24.42;14.65;;;2.70;99.90;;;;;;5033664;28;20166;-74
2023/01/24 02:17:53;;;;;;;24.02;14.27;;;2.70;99.90;;;;;;5036006;28;20052;-74
2023/01/24 02:20:33;;;;;;;24.90;15.00;;;2.60;99.90;;;;;;5038273;28;20036;-73
2023/01/24 02:23:21;;;;;;;25.10;14.25;;;2.60;99.90;;;;;;5046191;28;20036;-73
2023/01/24 02:26:09;;;;;;;27.55;14.18;;;2.60;99.90;;;;;;5037636;28;20044;-73
2023/01/24 02:28:35;;;;;;;24.27;14.60;;;2.60;99.90;;;;;;5041716;28;20044;-74
2023/01/24 02:31:03;;;;;;;27.92;15.93;;;2.80;99.90;;;;;;5054286;28;20097;-74
2023/01/24 02:33:30;;;;;;;25.48;15.25;;;2.70;99.90;;;;;;5038917;28;20462;-74
2023/01/24 02:36:13;;;;;;;27.00;15.18;;;2.80;99.90;;;;;;5013135;28;20528;-74
2023/01/24 02:38:42;;;;;;;29.67;15.02;;;2.60;99.90;;;;;;5060474;28;20078;-75
2023/01/24 02:41:09;;;;;;;26.52;14.75;;;2.60;99.90;;;;;;5034777;28;20086;-74
2023/01/24 02:43:40;;;;;;;27.42;15.55;;;2.60;99.90;;;;;;5038309;28;20604;-74
2023/01/24 02:46:05;;;;;;;28.05;15.80;;;2.60;99.90;;;;;;5058968;28;20048;-75
2023/01/24 02:48:31;;;;;;;30.45;16.45;;;2.60;99.90;;;;;;5054486;28;20094;-75
2023/01/24 02:53:42;;;;;;;30.20;15.63;;;2.60;99.90;;;;;;5044266;28;20091;-74
2023/01/24 02:58:54;;;;;;;28.70;16.50;;;2.60;99.90;;;;;;5038887;28;20342;-74
2023/01/24 03:01:21;;;;;;;29.40;16.05;;;2.60;99.90;;;;;;5046070;28;20035;-74
2023/01/24 03:03:47;;;;;;;26.42;15.45;;;2.90;99.90;;;;;;5035670;28;20045;-74
2023/01/24 03:06:15;;;;;;;28.52;15.35;;;2.60;99.90;;;;;;5038562;28;20083;-74
2023/01/24 03:08:41;;;;;;;31.48;17.30;;;2.60;99.90;;;;;;5028059;28;20059;-73
2023/01/24 03:11:07;;;;;;;28.42;16.55;;;2.60;99.90;;;;;;5021246;28;20474;-74
2023/01/24 03:35:31;;;;;;;29.02;15.40;;;2.60;99.90;;;;;;5034109;28;20056;-75
2023/01/24 03:40:42;;;;;;;27.60;15.23;;;2.60;99.90;;;;;;5031403;28;20052;-74
2023/01/24 03:43:08;;;;;;;25.73;15.05;;;2.70;99.90;;;;;;5032558;28;20053;-74
2023/01/24 03:45:36;;;;;;;27.48;14.85;;;2.60;99.90;;;;;;5040788;28;20395;-75
2023/01/24 03:48:09;;;;;;;26.98;14.27;;;2.60;99.90;;;;;;5033121;28;20116;-75
2023/01/24 03:53:26;;;;;;;24.50;14.80;;;2.60;99.90;;;;;;5039799;28;20113;-74
2023/01/24 03:55:57;;;;;;;26.10;14.30;;;2.60;99.90;;;;;;5030797;28;20048;-75
2023/01/24 03:58:24;;;;;;;20.42;11.40;;;2.60;99.90;;;;;;5062077;28;20044;-74
2023/01/24 04:00:51;;;;;;;25.85;14.40;;;2.80;99.90;;;;;;5039099;28;20045;-74
2023/01/24 04:03:17;;;;;;;26.15;14.82;;;2.90;99.90;;;;;;5054567;28;20102;-74
2023/01/24 04:05:43;;;;;;;25.30;14.82;;;2.60;99.90;;;;;;5048152;28;20617;-73
2023/01/24 04:08:09;;;;;;;25.77;14.23;;;2.60;99.90;;;;;;5057383;28;20087;-74
2023/01/24 04:10:34;;;;;;;20.35;13.00;;;2.60;99.90;;;;;;5033248;28;20127;-74
2023/01/24 04:13:00;;;;;;;21.58;12.27;;;2.70;99.90;;;;;;5044302;28;20059;-72
2023/01/24 04:15:29;;;;;;;21.73;12.20;;;2.60;99.90;;;;;;5029598;28;20032;-72
2023/01/24 04:17:56;;;;;;;20.58;11.57;;;2.60;99.90;;;;;;5042889;28;20048;-71
2023/01/24 04:20:23;;;;;;;20.40;11.95;;;2.70;99.90;;;;;;5019034;28;20049;-72
2023/01/24 04:22:48;;;;;;;20.15;11.77;;;3.00;99.90;;;;;;5044842;28;20044;-71
2023/01/24 04:25:14;;;;;;;18.77;11.85;;;2.80;99.90;;;;;;5048291;28;20460;-71
2023/01/24 04:27:40;;;;;;;22.10;12.93;;;2.60;99.90;;;;;;5047726;28;20120;-71
2023/01/24 04:30:08;;;;;;;18.65;11.48;;;3.30;99.90;;;;;;5035738;28;20045;-71
2023/01/24 04:32:34;;;;;;;19.10;11.77;;;2.60;99.90;;;;;;5063213;28;20420;-72
2023/01/24 04:35:02;;;;;;;20.08;12.05;;;2.60;99.90;;;;;;5018076;28;20445;-71
2023/01/24 04:37:29;;;;;;;17.92;10.63;;;2.70;99.90;;;;;;5021854;28;20094;-71
2023/01/24 04:39:55;;;;;;;19.27;11.13;;;3.00;99.90;;;;;;5030324;28;20040;-72
2023/01/24 04:42:21;;;;;;;19.38;11.27;;;2.60;99.90;;;;;;5034587;28;20133;-72
2023/01/24 04:44:47;;;;;;;18.60;11.02;;;2.90;99.90;;;;;;5035119;28;20040;-72
2023/01/24 04:47:13;;;;;;;19.77;11.70;;;2.60;99.90;;;;;;5033118;28;20041;-71
2023/01/24 04:49:41;;;;;;;19.67;11.15;;;2.60;99.90;;;;;;5054876;28;20054;-71
2023/01/24 04:52:10;;;;;;;19.02;12.07;;;2.60;99.90;;;;;;5041282;28;20053;-71
2023/01/24 04:54:36;;;;;;;19.70;12.23;;;2.90;99.90;;;;;;5060323;28;20441;-71
2023/01/24 04:57:01;;;;;;;20.00;12.02;;;2.60;99.90;;;;;;5029283;28;20045;-71
2023/01/24 04:59:27;;;;;;;21.85;13.18;;;2.60;99.90;;;;;;5037871;28;20045;-71
2023/01/24 05:01:53;;;;;;;21.33;13.20;;;2.60;99.90;;;;;;5013229;28;20041;-71
2023/01/24 05:04:18;;;;;;;24.02;13.80;;;2.90;99.90;;;;;;5025554;28;20152;-71
2023/01/24 05:06:44;;;;;;;22.67;13.70;;;2.60;99.90;;;;;;5061587;28;20130;-72
2023/01/24 05:09:10;;;;;;;23.83;13.63;;;2.60;99.90;;;;;;5041596;28;20143;-71
2023/01/24 05:11:36;;;;;;;21.33;13.38;;;2.60;99.90;;;;;;5043639;28;20041;-71
2023/01/24 05:14:02;;;;;;;24.50;14.55;;;2.60;99.90;;;;;;5041766;28;20055;-71
2023/01/24 05:16:28;;;;;;;21.90;13.63;;;2.60;99.90;;;;;;5017252;28;20083;-71
2023/01/24 05:18:54;;;;;;;23.30;14.13;;;2.60;99.90;;;;;;5042407;28;20474;-71
2023/01/24 05:21:20;;;;;;;25.55;14.32;;;2.60;99.90;;;;;;5026800;28;20487;-71
2023/01/24 05:23:51;;;;;;;24.15;14.20;;;2.60;99.90;;;;;;5051659;28;20059;-71
2023/01/24 05:26:18;;;;;;;24.05;13.88;;;2.60;99.90;;;;;;5029564;28;20041;-71
2023/01/24 05:28:44;;;;;;;25.63;15.70;;;2.60;99.90;;;;;;5055837;28;20484;-71
2023/01/24 05:31:09;;;;;;;27.23;15.05;;;2.60;99.90;;;;;;5025171;28;20041;-71
2023/01/24 05:33:36;;;;;;;25.35;14.30;;;2.70;99.90;;;;;;5044170;28;20044;-71
2023/01/24 05:36:04;;;;;;;25.65;14.82;;;2.60;99.90;;;;;;5038113;28;20080;-72
2023/01/24 05:38:31;;;;;;;24.73;14.50;;;2.50;99.90;;;;;;5041225;28;20139;-71
2023/01/24 05:41:05;;;;;;;25.45;15.85;;;2.70;99.90;;;;;;5047065;28;20127;-71
2023/01/24 05:43:31;;;;;;;24.92;15.52;;;2.50;99.90;;;;;;5055859;28;20040;-71
2023/01/24 05:46:11;;;;;;;26.23;15.82;;;2.80;99.90;;;;;;5020000;28;20051;-71
2023/01/24 05:48:36;;;;;;;27.27;15.75;;;2.70;99.90;;;;;;5037813;28;20516;-70
2023/01/24 05:51:05;;;;;;;24.85;15.43;;;2.60;99.90;;;;;;5019374;28;20048;-73
2023/01/24 05:53:32;;;;;;;25.83;15.65;;;2.50;99.90;;;;;;5035035;28;20040;-72
2023/01/24 05:56:01;;;;;;;26.20;15.77;;;2.60;99.90;;;;;;5057821;28;20037;-71
2023/01/24 05:58:29;;;;;;;28.70;17.15;;;2.50;99.90;;;;;;5040274;28;20119;-71
2023/01/24 06:00:55;;;;;;;27.63;17.38;;;2.50;99.90;;;;;;5020399;28;20036;-71
2023/01/24 06:03:22;;;;;;;29.17;17.50;;;2.50;99.90;;;;;;5023079;28;20110;-71
2023/01/24 06:05:50;;;;;;;28.15;17.25;;;2.60;99.90;;;;;;5058316;28;20103;-72
2023/01/24 06:08:16;;;;;;;27.80;16.80;;;2.60;99.90;;;;;;5059183;28;20094;-71
2023/01/24 06:10:43;;;;;;;29.50;17.15;;;2.70;99.90;;;;;;5039528;28;20048;-71
2023/01/24 06:13:09;;;;;;;26.92;16.73;;;2.80;99.90;;;;;;5038151;28;20114;-72
2023/01/24 06:15:35;;;;;;;26.00;17.15;;;2.50;99.90;;;;;;5031772;28;20851;-71
2023/01/24 06:18:01;;;;;;;28.85;17.52;;;2.50;99.90;;;;;;5037990;28;20037;-71
2023/01/24 06:20:27;;;;;;;29.67;18.58;;;2.90;99.90;;;;;;5021055;28;20190;-71
2023/01/24 06:22:56;;;;;;;30.42;17.77;;;2.50;99.90;;;;;;5038622;28;20037;-71
2023/01/24 06:25:24;;;;;;;29.92;18.05;;;2.50;99.90;;;;;;5036533;28;20068;-71
2023/01/24 06:27:51;;;;;;;27.20;17.52;;;2.50;99.90;;;;;;5029977;28;20045;-71
2023/01/24 06:30:18;;;;;;;29.23;17.75;;;2.50;99.90;;;;;;5023077;28;20041;-71
2023/01/24 06:33:07;;;;;;;31.33;17.70;;;2.50;99.90;;;;;;5037696;28;20422;-71
2023/01/24 06:35:44;;;;;;;28.17;17.30;;;2.50;99.90;;;;;;5019240;28;20056;-71
2023/01/24 06:38:20;;;;;;;29.10;17.70;;;2.50;99.90;;;;;;5034415;28;20067;-71
2023/01/24 06:40:53;;;;;;;28.75;18.23;;;2.50;99.90;;;;;;5032780;28;20083;-71
2023/01/24 06:43:19;;;;;;;32.55;18.58;;;2.50;99.90;;;;;;5034445;28;20064;-71
2023/01/24 06:45:45;;;;;;;28.95;18.45;;;2.50;99.90;;;;;;5039518;28;20053;-69
2023/01/24 06:48:11;;;;;;;29.00;17.83;;;2.50;99.90;;;;;;5034427;28;20052;-71
2023/01/24 06:50:37;;;;;;;28.48;18.00;;;2.50;99.90;;;;;;5032176;28;20037;-71
2023/01/24 06:53:03;;;;;;;31.23;20.05;;;2.70;99.90;;;;;;5019261;28;20052;-72
2023/01/24 06:55:32;;;;;;;32.40;19.17;;;3.10;99.90;;;;;;5037838;28;20051;-72
2023/01/24 06:58:02;;;;;;;30.13;18.63;;;2.50;99.90;;;;;;5036402;28;20102;-72
2023/01/24 07:00:29;;;;;;;30.35;18.77;;;2.40;99.90;;;;;;5034553;28;20409;-72
2023/01/24 07:03:02;;;;;;;30.75;19.60;;;2.50;99.90;;;;;;5033530;28;20041;-71
2023/01/24 07:05:28;;;;;;;30.75;17.90;;;2.40;99.90;;;;;;5036850;28;20045;-70
2023/01/24 07:07:55;;;;;;;29.55;18.25;;;2.40;99.90;;;;;;5020531;28;20044;-71
2023/01/24 07:10:20;;;;;;;31.38;17.95;;;2.40;99.90;;;;;;5017002;28;20091;-70
2023/01/24 07:12:47;;;;;;;30.38;18.00;;;2.40;99.90;;;;;;5050870;28;20102;-71
2023/01/24 07:15:13;;;;;;;30.63;19.30;;;2.50;99.90;;;;;;5045722;28;20696;-71
2023/01/24 07:17:39;;;;;;;31.23;18.75;;;2.40;99.90;;;;;;5038747;28;20052;-71
2023/01/24 07:20:06;;;;;;;30.40;17.80;;;2.40;99.90;;;;;;5039391;28;20127;-71
2023/01/24 07:22:32;;;;;;;32.30;18.85;;;2.40;99.90;;;;;;5037271;28;20319;-72
2023/01/24 07:24:58;;;;;;;33.70;19.02;;;2.40;99.90;;;;;;5032750;28;20052;-71
2023/01/24 07:27:24;;;;;;;34.88;19.95;;;2.40;99.90;;;;;;5020646;28;20052;-71
2023/01/24 07:29:50;;;;;;;33.05;19.33;;;2.40;99.90;;;;;;5033588;28;20072;-71
2023/01/24 07:32:15;;;;;;;31.05;19.13;;;2.30;99.90;;;;;;5019067;28;20431;-72
2023/01/24 07:34:41;;;;;;;29.40;17.65;;;2.40;99.90;;;;;;5036213;28;20151;-72
2023/01/24 07:37:07;;;;;;;30.85;18.92;;;2.30;99.90;;;;;;5032332;28;20043;-71
2023/01/24 07:39:33;;;;;;;34.63;19.85;;;2.60;99.90;;;;;;5038013;28;20052;-71
2023/01/24 07:42:02;;;;;;;31.60;19.08;;;2.40;99.90;;;;;;5060950;28;20097;-71
2023/01/24 07:44:28;;;;;;;30.63;19.52;;;2.40;99.90;;;;;;5062587;28;20433;-71
2023/01/24 07:46:54;;;;;;;34.13;20.23;;;2.40;99.90;;;;;;5064228;28;20045;-72
2023/01/24 07:49:20;;;;;;;29.63;19.48;;;2.40;99.90;;;;;;5059322;28;20370;-71
2023/01/24 07:51:48;;;;;;;37.75;20.52;;;3.60;99.90;;;;;;5034331;28;20693;-71
2023/01/24 07:54:14;;;;;;;34.03;19.42;;;2.60;99.90;;;;;;5036978;28;20044;-71
2023/01/24 07:56:40;;;;;;;33.05;20.60;;;2.50;99.90;;;;;;5019766;28;20110;-71
2023/01/24 07:59:08;;;;;;;32.92;20.30;;;2.40;99.90;;;;;;5054218;28;20040;-71
2023/01/24 08:01:33;;;;;;;31.58;18.98;;;2.40;99.90;;;;;;5056246;28;20032;-71
2023/01/24 08:04:00;;;;;;;34.17;19.90;;;3.30;99.90;;;;;;5023114;28;20101;-71
2023/01/24 08:06:25;;;;;;;30.13;18.48;;;2.40;99.90;;;;;;5047135;28;20044;-71
2023/01/24 08:08:51;;;;;;;34.78;19.13;;;2.40;99.90;;;;;;5021530;28;20048;-71
2023/01/24 08:11:17;;;;;;;32.90;17.95;;;2.40;99.90;;;;;;5014798;28;20059;-71
2023/01/24 08:13:46;;;;;;;31.77;18.25;;;2.30;99.90;;;;;;5033280;28;20786;-71
2023/01/24 08:16:12;;;;;;;27.15;16.77;;;2.30;99.90;;;;;;5036313;28;20044;-71
2023/01/24 08:18:40;;;;;;;27.70;17.27;;;2.30;99.90;;;;;;5037937;28;20090;-71
2023/01/24 08:21:06;;;;;;;28.35;17.42;;;2.30;99.90;;;;;;5036699;28;20102;-70
2023/01/24 08:23:32;;;;;;;24.17;15.60;;;2.30;99.90;;;;;;5026764;28;20032;-70
2023/01/24 08:25:59;;;;;;;26.60;15.27;;;2.30;99.90;;;;;;5021476;28;20048;-70
2023/01/24 08:28:25;;;;;;;26.63;15.57;;;2.30;99.90;;;;;;5041343;28;20044;-71
2023/01/24 08:30:51;;;;;;;25.13;15.45;;;2.40;99.90;;;;;;5041852;28;20739;-70
2023/01/24 08:33:19;;;;;;;25.70;15.80;;;2.30;99.90;;;;;;5038184;28;20044;-71
2023/01/24 08:35:46;;;;;;;27.33;15.85;;;2.30;99.90;;;;;;5054441;28;20049;-70
2023/01/24 08:38:13;;;;;;;26.83;16.08;;;3.10;99.90;;;;;;5034625;28;20086;-71
2023/01/24 08:40:39;;;;;;;27.27;16.95;;;2.40;99.90;;;;;;5022376;28;20087;-71
2023/01/24 08:43:04;;;;;;;28.48;16.45;;;2.60;99.90;;;;;;5026381;28;20044;-71
2023/01/24 08:45:30;;;;;;;27.30;16.83;;;2.30;99.90;;;;;;5020347;28;20098;-71
2023/01/24 08:47:56;;;;;;;27.33;16.80;;;2.30;99.90;;;;;;5038865;28;20499;-71
2023/01/24 08:50:22;;;;;;;25.65;16.08;;;2.40;99.90;;;;;;5035635;28;20068;-71
2023/01/24 08:52:48;;;;;;;26.52;17.15;;;2.30;99.90;;;;;;5023324;28;20059;-71
2023/01/24 08:55:15;;;;;;;27.17;16.70;;;2.40;99.90;;;;;;5040327;28;20082;-71
2023/01/24 08:57:41;;;;;;;26.33;16.73;;;2.40;99.90;;;;;;5057299;28;20103;-70
2023/01/24 09:00:07;;;;;;;26.13;16.45;;;2.40;99.90;;;;;;5032918;28;20044;-71
2023/01/24 09:02:36;;;;;;;31.75;17.15;;;2.40;99.90;;;;;;5038977;28;20041;-72
2023/01/24 09:05:03;;;;;;;26.77;16.95;;;2.40;99.90;;;;;;5023586;28;20105;-71
2023/01/24 09:07:29;;;;;;;27.30;16.48;;;2.40;99.90;;;;;;5035471;28;20045;-70
2023/01/24 09:09:56;;;;;;;29.45;17.52;;;2.40;99.90;;;;;;5037781;28;20102;-71
2023/01/24 09:12:21;;;;;;;29.45;18.33;;;2.40;99.90;;;;;;5032588;28;20049;-71
2023/01/24 09:14:47;;;;;;;25.30;16.38;;;2.40;99.90;;;;;;5034928;28;20109;-71
2023/01/24 09:17:13;;;;;;;28.58;17.40;;;2.40;99.90;;;;;;5052808;28;20556;-71
2023/01/24 09:19:39;;;;;;;27.08;17.73;;;2.40;99.90;;;;;;5032014;28;20045;-71
2023/01/24 09:22:04;;;;;;;29.48;17.30;;;2.40;99.90;;;;;;5031794;28;20132;-71
2023/01/24 09:24:30;;;;;;;27.80;17.85;;;2.40;99.90;;;;;;5032017;28;20063;-71
2023/01/24 09:26:56;;;;;;;23.92;16.23;;;2.40;99.90;;;;;;5033081;28;20140;-72
2023/01/24 09:29:21;;;;;;;27.27;17.17;;;2.60;99.90;;;;;;5032898;28;20037;-72
2023/01/24 09:31:48;;;;;;;26.52;18.33;;;2.50;99.90;;;;;;5029842;28;20061;-71
2023/01/24 09:34:14;;;;;;;26.63;17.48;;;2.50;99.90;;;;;;5015061;28;20044;-71
2023/01/24 09:36:40;;;;;;;25.65;17.00;;;2.40;99.90;;;;;;5026259;28;20045;-72
2023/01/24 09:39:06;;;;;;;26.35;16.92;;;2.50;99.90;;;;;;5026820;28;20060;-72
2023/01/24 09:41:56;;;;;;;27.30;18.17;;;2.40;99.90;;;;;;5030253;28;20115;-72
2023/01/24 09:44:46;;;;;;;28.17;17.05;;;2.50;99.90;;;;;;5016179;28;20040;-72
2023/01/24 09:47:23;;;;;;;26.27;17.58;;;2.50;99.90;;;;;;5045499;28;20657;-72
2023/01/24 09:50:02;;;;;;;31.98;18.83;;;2.50;99.90;;;;;;5034123;28;20052;-72
2023/01/24 09:52:30;;;;;;;30.83;18.77;;;2.40;99.90;;;;;;5017369;28;20127;-73
2023/01/24 09:55:02;;;;;;;27.70;18.60;;;2.50;99.90;;;;;;5033111;28;20114;-72
2023/01/24 09:57:42;;;;;;;26.90;17.67;;;2.50;99.90;;;;;;5032483;28;20053;-72
2023/01/24 10:00:19;;;;;;;28.00;18.08;;;2.50;99.90;;;;;;5032647;28;20163;-71
2023/01/24 10:02:44;;;;;;;27.25;17.13;;;2.50;99.90;;;;;;5034380;28;20055;-72
2023/01/24 10:05:15;;;;;;;28.30;17.77;;;2.50;99.90;;;;;;5026252;28;21054;-71
2023/01/24 10:08:06;;;;;;;28.30;18.73;;;2.50;99.90;;;;;;5016107;28;20045;-71
2023/01/24 10:10:44;;;;;;;26.95;17.73;;;2.50;99.90;;;;;;5032112;28;20037;-71
2023/01/24 10:13:37;;;;;;;26.50;17.70;;;2.50;99.90;;;;;;5036226;28;20054;-71
2023/01/24 10:16:30;;;;;;;23.63;15.80;;;2.50;99.90;;;;;;5027822;28;20399;-71
2023/01/24 10:19:30;;;;;;;23.92;15.82;;;2.50;99.90;;;;;;5034206;28;20049;-71
2023/01/24 10:22:21;;;;;;;21.90;15.20;;;2.50;99.90;;;;;;5037065;28;20045;-71
2023/01/24 10:25:05;;;;;;;24.85;15.73;;;2.50;99.90;;;;;;5033142;28;21227;-71
2023/01/24 10:27:40;;;;;;;23.40;16.00;;;2.50;99.90;;;;;;5013508;28;20155;-71
2023/01/24 10:30:21;;;;;;;21.75;14.40;;;2.60;99.90;;;;;;5058878;28;20045;-72
2023/01/24 10:32:50;;;;;;;23.42;15.57;;;2.50;99.90;;;;;;5029964;28;20060;-71
2023/01/24 10:35:30;;;;;;;27.38;16.50;;;2.50;99.90;;;;;;5012405;28;20052;-72
2023/01/24 10:38:00;;;;;;;23.02;14.55;;;2.50;99.90;;;;;;5012115;28;20111;-71
2023/01/24 10:40:26;;;;;;;21.27;13.65;;;2.50;99.90;;;;;;5032494;28;20049;-71
2023/01/24 10:42:51;;;;;;;23.15;13.75;;;2.50;99.90;;;;;;5015796;28;20102;-72
2023/01/24 10:45:35;;;;;;;23.35;13.73;;;3.30;99.90;;;;;;5035027;28;20071;-70
2023/01/24 10:48:05;;;;;;;20.83;12.02;;;3.10;99.90;;;;;;5028486;28;20051;-71
2023/01/24 10:50:40;;;;;;;22.88;14.05;;;2.50;99.90;;;;;;5013763;28;20041;-70
2023/01/24 10:53:26;;;;;;;24.27;14.05;;;2.50;99.90;;;;;;5034712;28;20037;-71
2023/01/24 10:55:59;;;;;;;23.17;13.93;;;2.70;99.90;;;;;;5032878;28;20048;-71
2023/01/24 10:58:29;;;;;;;20.15;12.70;;;2.50;99.90;;;;;;5032264;28;20059;-71
2023/01/24 11:01:17;;;;;;;23.45;13.50;;;2.50;99.90;;;;;;5028214;28;20041;-70
2023/01/24 11:03:43;;;;;;;23.60;13.00;;;2.50;99.90;;;;;;5010202;28;20045;-70
2023/01/24 11:06:33;;;;;;;23.10;13.40;;;2.60;99.90;;;;;;5027621;28;20142;-71
2023/01/24 11:09:14;;;;;;;21.58;13.50;;;2.60;99.90;;;;;;5033131;28;20124;-71
2023/01/24 11:11:43;;;;;;;22.92;14.35;;;2.50;99.90;;;;;;5037755;28;20417;-71
2023/01/24 11:14:14;;;;;;;21.25;13.55;;;2.60;99.90;;;;;;5041080;28;20507;-72
2023/01/24 11:16:43;;;;;;;21.55;13.77;;;2.60;99.90;;;;;;5042353;28;20051;-72
2023/01/24 11:19:25;;;;;;;21.55;13.63;;;2.60;99.90;;;;;;5020334;28;20468;-72
2023/01/24 11:21:55;;;;;;;23.23;14.07;;;2.60;99.90;;;;;;5038084;28;20138;-72
2023/01/24 11:24:22;;;;;;;21.30;13.70;;;2.60;99.90;;;;;;5025649;28;20048;-70
2023/01/24 11:27:13;;;;;;;22.38;14.05;;;2.50;99.90;;;;;;5045641;28;20805;-71
2023/01/24 11:29:39;;;;;;;20.80;12.20;;;2.60;99.90;;;;;;5021990;28;20056;-71
2023/01/24 11:32:20;;;;;;;23.95;13.77;;;3.00;99.90;;;;;;5047702;28;20120;-72
2023/01/24 11:35:02;;;;;;;22.13;13.80;;;2.50;99.90;;;;;;5038860;28;20051;-71
2023/01/24 11:37:52;;;;;;;22.52;12.63;;;2.50;99.90;;;;;;5037502;28;20409;-71
2023/01/24 11:40:47;;;;;;;20.83;12.63;;;2.50;99.90;;;;;;5034711;28;20048;-71
2023/01/24 11:43:24;;;;;;;19.83;12.40;;;2.50;99.90;;;;;;5043009;28;20048;-70
2023/01/24 11:46:11;;;;;;;21.88;13.23;;;2.60;99.90;;;;;;5027869;28;20048;-71
2023/01/24 11:48:54;;;;;;;22.80;12.43;;;2.60;99.90;;;;;;5011590;28;20044;-71
2023/01/24 11:51:26;;;;;;;19.45;12.30;;;2.60;99.90;;;;;;5027867;28;20052;-71
2023/01/24 11:53:57;;;;;;;21.42;13.10;;;2.60;99.90;;;;;;5034585;28;20072;-70
2023/01/24 11:56:55;;;;;;;23.13;13.60;;;2.60;99.90;;;;;;5016708;28;20083;-72
2023/01/24 11:59:51;;;;;;;22.65;13.48;;;2.60;99.90;;;;;;5026356;28;20572;-71
2023/01/24 12:02:35;;;;;;;24.23;13.07;;;2.60;99.90;;;;;;5028774;28;20044;-70
2023/01/24 12:05:22;;;;;;;20.45;12.00;;;2.60;99.90;;;;;;5032870;28;20439;-71
2023/01/24 12:08:16;;;;;;;19.73;12.20;;;2.60;99.90;;;;;;5019177;28;20561;-72
2023/01/24 12:10:49;;;;;;;20.10;12.57;;;2.60;99.90;;;;;;5050812;28;20041;-72
2023/01/24 12:13:35;;;;;;;21.73;13.85;;;2.60;99.90;;;;;;5027380;28;20224;-72
2023/01/24 12:16:11;;;;;;;20.25;12.95;;;2.60;99.90;;;;;;5029651;28;20052;-71
2023/01/24 12:18:56;;;;;;;21.30;13.45;;;2.70;99.90;;;;;;5023125;28;20123;-71
2023/01/24 12:21:23;;;;;;;21.80;13.02;;;2.60;99.90;;;;;;5031076;28;20033;-71
2023/01/24 12:23:48;;;;;;;22.75;13.70;;;2.60;99.90;;;;;;5029398;28;20120;-72
2023/01/24 12:26:38;;;;;;;22.27;12.48;;;2.60;99.90;;;;;;5012598;28;20049;-72
2023/01/24 12:29:22;;;;;;;24.63;13.70;;;2.60;99.90;;;;;;5023862;28;20057;-72
2023/01/24 12:32:00;;;;;;;22.67;13.82;;;2.60;99.90;;;;;;5015642;28;20414;-72
2023/01/24 12:34:51;;;;;;;21.60;13.68;;;2.60;99.90;;;;;;5026109;28;20418;-71
2023/01/24 12:37:27;;;;;;;23.05;14.10;;;2.60;99.90;;;;;;5025738;28;20048;-72
2023/01/24 12:39:53;;;;;;;25.02;15.32;;;2.60;99.90;;;;;;5026049;28;20449;-70
2023/01/24 12:42:27;;;;;;;22.30;13.82;;;2.70;99.90;;;;;;5014617;28;20041;-72
2023/01/24 12:45:01;;;;;;;21.23;13.18;;;2.70;99.90;;;;;;5034404;28;20852;-71
2023/01/24 12:47:48;;;;;;;23.25;13.98;;;2.60;99.90;;;;;;5033408;28;20040;-70
2023/01/24 12:50:39;;;;;;;23.10;13.10;;;2.70;99.90;;;;;;5029339;28;20581;-71
2023/01/24 12:53:11;;;;;;;23.58;13.65;;;2.60;99.90;;;;;;5010588;28;20421;-72
2023/01/24 12:55:59;;;;;;;20.50;12.10;;;2.70;99.90;;;;;;5030016;28;20059;-71
2023/01/24 12:58:35;;;;;;;21.80;12.50;;;2.70;99.90;;;;;;4996123;28;20608;-72
2023/01/24 13:01:22;;;;;;;20.70;13.07;;;2.70;99.90;;;;;;5010195;28;20037;-71
2023/01/24 13:04:14;;;;;;;21.23;12.35;;;2.60;99.90;;;;;;5012351;28;20056;-72
2023/01/24 13:07:07;;;;;;;24.25;13.85;;;2.60;99.90;;;;;;5001096;28;20053;-72
2023/01/24 13:09:45;;;;;;;20.83;12.45;;;2.60;99.90;;;;;;5028541;28;20087;-72
2023/01/24 13:12:18;;;;;;;19.85;12.93;;;2.60;99.90;;;;;;5026443;28;20156;-72
2023/01/24 13:15:09;;;;;;;21.10;12.75;;;2.60;99.90;;;;;;5033122;28;20128;-71
2023/01/24 13:17:43;;;;;;;21.70;12.80;;;2.50;99.90;;;;;;5049549;28;20500;-71
2023/01/24 13:20:24;;;;;;;22.25;12.80;;;2.60;99.90;;;;;;5026545;28;20048;-71
2023/01/24 13:23:05;;;;;;;22.30;13.13;;;2.60;99.90;;;;;;5026139;28;20045;-70
2023/01/24 13:26:10;;;;;;;24.80;13.95;;;2.60;99.90;;;;;;5015348;28;20694;-71
2023/01/24 13:29:04;;;;;;;22.75;13.68;;;2.50;99.90;;;;;;5012736;28;20061;-71
2023/01/24 13:32:15;;;;;;;21.88;13.48;;;2.60;99.90;;;;;;5026614;28;20497;-71